sensor_id;sensor_type;location;lat;lon;timestamp;P1;durP1;ratioP1;P2;durP2;ratioP2
7971;SDS011;4031;49.758;6.120;2022-09-09T00:00:39;3.20;;;1.60;;
7971;SDS011;4031;49.758;6.120;2022-09-09T00:03:19;3.07;;;1.30;;
7971;SDS011;4031;49.758;6.120;2022-09-09T00:11:46;2.83;;;1.40;;
7971;SDS011;4031;49.758;6.120;2022-09-09T00:14:51;2.43;;;1.77;;
7971;SDS011;4031;49.758;6.120;2022-09-09T00:17:48;2.90;;;2.00;;
7971;SDS011;4031;49.758;6.120;2022-09-09T00:20:43;2.70;;;1.90;;
7971;SDS011;4031;49.758;6.120;2022-09-09T00:23:37;6.60;;;1.80;;
7971;SDS011;4031;49.758;6.120;2022-09-09T00:26:17;3.93;;;1.93;;
7971;SDS011;4031;49.758;6.120;2022-09-09T00:32:16;4.43;;;2.00;;
7971;SDS011;4031;49.758;6.120;2022-09-09T00:34:51;3.30;;;2.63;;
7971;SDS011;4031;49.758;6.120;2022-09-09T00:37:22;2.90;;;1.90;;
7971;SDS011;4031;49.758;6.120;2022-09-09T00:39:50;7.53;;;1.80;;
7971;SDS011;4031;49.758;6.120;2022-09-09T00:45:12;2.60;;;1.70;;
7971;SDS011;4031;49.758;6.120;2022-09-09T00:47:57;2.83;;;1.50;;
7971;SDS011;4031;49.758;6.120;2022-09-09T00:58:39;4.60;;;2.20;;
7971;SDS011;4031;49.758;6.120;2022-09-09T01:01:11;3.30;;;1.67;;
7971;SDS011;4031;49.758;6.120;2022-09-09T01:09:02;6.83;;;2.13;;
7971;SDS011;4031;49.758;6.120;2022-09-09T01:14:50;1.60;;;1.40;;
7971;SDS011;4031;49.758;6.120;2022-09-09T01:17:31;3.30;;;1.57;;
7971;SDS011;4031;49.758;6.120;2022-09-09T01:22:37;10.40;;;1.90;;
7971;SDS011;4031;49.758;6.120;2022-09-09T01:28:22;4.13;;;1.87;;
7971;SDS011;4031;49.758;6.120;2022-09-09T01:30:52;1.90;;;1.70;;
7971;SDS011;4031;49.758;6.120;2022-09-09T01:33:19;7.13;;;1.70;;
7971;SDS011;4031;49.758;6.120;2022-09-09T01:35:58;3.43;;;1.83;;
7971;SDS011;4031;49.758;6.120;2022-09-09T01:38:32;7.47;;;1.70;;
7971;SDS011;4031;49.758;6.120;2022-09-09T01:40:59;4.60;;;2.30;;
7971;SDS011;4031;49.758;6.120;2022-09-09T01:43:25;12.07;;;3.03;;
7971;SDS011;4031;49.758;6.120;2022-09-09T01:45:53;6.97;;;2.07;;
7971;SDS011;4031;49.758;6.120;2022-09-09T01:48:22;2.00;;;1.77;;
7971;SDS011;4031;49.758;6.120;2022-09-09T01:50:50;2.10;;;1.60;;
7971;SDS011;4031;49.758;6.120;2022-09-09T01:53:17;8.90;;;1.90;;
7971;SDS011;4031;49.758;6.120;2022-09-09T01:55:48;5.13;;;2.10;;
7971;SDS011;4031;49.758;6.120;2022-09-09T01:58:34;6.83;;;2.30;;
7971;SDS011;4031;49.758;6.120;2022-09-09T02:04:42;6.07;;;1.50;;
7971;SDS011;4031;49.758;6.120;2022-09-09T02:07:40;5.03;;;1.60;;
7971;SDS011;4031;49.758;6.120;2022-09-09T02:13:01;8.10;;;1.90;;
7971;SDS011;4031;49.758;6.120;2022-09-09T02:15:40;3.13;;;1.50;;
7971;SDS011;4031;49.758;6.120;2022-09-09T02:18:34;5.10;;;1.87;;
7971;SDS011;4031;49.758;6.120;2022-09-09T02:21:11;6.03;;;1.90;;
7971;SDS011;4031;49.758;6.120;2022-09-09T02:23:39;6.50;;;1.90;;
7971;SDS011;4031;49.758;6.120;2022-09-09T02:26:08;6.53;;;2.47;;
7971;SDS011;4031;49.758;6.120;2022-09-09T02:28:38;4.03;;;2.30;;
7971;SDS011;4031;49.758;6.120;2022-09-09T02:31:05;4.20;;;1.90;;
7971;SDS011;4031;49.758;6.120;2022-09-09T02:33:39;3.70;;;1.77;;
7971;SDS011;4031;49.758;6.120;2022-09-09T02:36:11;5.70;;;1.70;;
7971;SDS011;4031;49.758;6.120;2022-09-09T02:38:42;5.23;;;1.87;;
7971;SDS011;4031;49.758;6.120;2022-09-09T02:41:16;5.37;;;1.93;;
7971;SDS011;4031;49.758;6.120;2022-09-09T02:43:46;5.57;;;2.27;;
7971;SDS011;4031;49.758;6.120;2022-09-09T02:46:18;4.40;;;2.00;;
7971;SDS011;4031;49.758;6.120;2022-09-09T02:49:00;7.10;;;2.07;;
7971;SDS011;4031;49.758;6.120;2022-09-09T02:51:53;3.00;;;1.33;;
7971;SDS011;4031;49.758;6.120;2022-09-09T02:54:31;5.30;;;2.07;;
7971;SDS011;4031;49.758;6.120;2022-09-09T02:57:06;2.60;;;1.47;;
7971;SDS011;4031;49.758;6.120;2022-09-09T02:59:44;9.40;;;2.43;;
7971;SDS011;4031;49.758;6.120;2022-09-09T03:02:11;4.33;;;1.40;;
7971;SDS011;4031;49.758;6.120;2022-09-09T03:04:38;8.23;;;2.43;;
7971;SDS011;4031;49.758;6.120;2022-09-09T03:07:04;3.97;;;1.90;;
7971;SDS011;4031;49.758;6.120;2022-09-09T03:09:30;3.60;;;2.57;;
7971;SDS011;4031;49.758;6.120;2022-09-09T03:11:57;6.60;;;1.97;;
7971;SDS011;4031;49.758;6.120;2022-09-09T03:14:23;3.57;;;1.80;;
7971;SDS011;4031;49.758;6.120;2022-09-09T03:16:53;4.17;;;1.80;;
7971;SDS011;4031;49.758;6.120;2022-09-09T03:19:19;11.70;;;2.30;;
7971;SDS011;4031;49.758;6.120;2022-09-09T03:21:46;7.23;;;2.10;;
7971;SDS011;4031;49.758;6.120;2022-09-09T03:24:12;7.13;;;2.40;;
7971;SDS011;4031;49.758;6.120;2022-09-09T03:26:39;4.13;;;2.13;;
7971;SDS011;4031;49.758;6.120;2022-09-09T03:29:06;6.00;;;2.77;;
7971;SDS011;4031;49.758;6.120;2022-09-09T03:31:33;4.60;;;2.40;;
7971;SDS011;4031;49.758;6.120;2022-09-09T03:34:00;2.20;;;1.80;;
7971;SDS011;4031;49.758;6.120;2022-09-09T03:36:26;5.10;;;2.30;;
7971;SDS011;4031;49.758;6.120;2022-09-09T03:38:53;5.50;;;2.63;;
7971;SDS011;4031;49.758;6.120;2022-09-09T03:41:20;2.90;;;2.33;;
7971;SDS011;4031;49.758;6.120;2022-09-09T03:43:48;6.17;;;2.60;;
7971;SDS011;4031;49.758;6.120;2022-09-09T03:46:19;3.27;;;1.77;;
7971;SDS011;4031;49.758;6.120;2022-09-09T03:48:46;5.37;;;2.37;;
7971;SDS011;4031;49.758;6.120;2022-09-09T03:51:12;4.80;;;2.30;;
7971;SDS011;4031;49.758;6.120;2022-09-09T03:53:39;5.07;;;2.27;;
7971;SDS011;4031;49.758;6.120;2022-09-09T03:56:05;5.00;;;1.50;;
7971;SDS011;4031;49.758;6.120;2022-09-09T03:58:32;10.20;;;2.27;;
7971;SDS011;4031;49.758;6.120;2022-09-09T04:01:05;4.13;;;1.97;;
7971;SDS011;4031;49.758;6.120;2022-09-09T04:03:40;4.67;;;1.90;;
7971;SDS011;4031;49.758;6.120;2022-09-09T04:06:06;4.50;;;1.93;;
7971;SDS011;4031;49.758;6.120;2022-09-09T04:08:35;4.70;;;2.57;;
7971;SDS011;4031;49.758;6.120;2022-09-09T04:11:03;5.23;;;2.07;;
7971;SDS011;4031;49.758;6.120;2022-09-09T04:13:31;9.60;;;2.23;;
7971;SDS011;4031;49.758;6.120;2022-09-09T04:15:59;2.90;;;2.03;;
7971;SDS011;4031;49.758;6.120;2022-09-09T04:18:27;1.83;;;1.60;;
7971;SDS011;4031;49.758;6.120;2022-09-09T04:20:56;5.03;;;2.30;;
7971;SDS011;4031;49.758;6.120;2022-09-09T04:23:22;2.10;;;1.80;;
7971;SDS011;4031;49.758;6.120;2022-09-09T04:25:51;5.27;;;2.10;;
7971;SDS011;4031;49.758;6.120;2022-09-09T04:28:19;4.63;;;1.63;;
7971;SDS011;4031;49.758;6.120;2022-09-09T04:30:49;5.77;;;1.60;;
7971;SDS011;4031;49.758;6.120;2022-09-09T04:33:16;3.63;;;2.13;;
7971;SDS011;4031;49.758;6.120;2022-09-09T04:35:48;7.97;;;2.00;;
7971;SDS011;4031;49.758;6.120;2022-09-09T04:38:16;2.63;;;1.77;;
7971;SDS011;4031;49.758;6.120;2022-09-09T04:40:48;6.90;;;1.83;;
7971;SDS011;4031;49.758;6.120;2022-09-09T04:43:16;4.90;;;1.87;;
7971;SDS011;4031;49.758;6.120;2022-09-09T04:45:46;4.20;;;1.60;;
7971;SDS011;4031;49.758;6.120;2022-09-09T04:48:13;2.60;;;1.97;;
7971;SDS011;4031;49.758;6.120;2022-09-09T04:50:39;8.10;;;1.90;;
7971;SDS011;4031;49.758;6.120;2022-09-09T04:53:06;3.10;;;1.63;;
7971;SDS011;4031;49.758;6.120;2022-09-09T04:55:32;4.63;;;1.70;;
7971;SDS011;4031;49.758;6.120;2022-09-09T04:58:06;3.50;;;2.10;;
7971;SDS011;4031;49.758;6.120;2022-09-09T05:00:34;6.43;;;1.93;;
7971;SDS011;4031;49.758;6.120;2022-09-09T05:03:07;5.30;;;1.53;;
7971;SDS011;4031;49.758;6.120;2022-09-09T05:05:33;4.70;;;2.10;;
7971;SDS011;4031;49.758;6.120;2022-09-09T05:08:09;6.33;;;2.00;;
7971;SDS011;4031;49.758;6.120;2022-09-09T05:10:36;3.73;;;2.20;;
7971;SDS011;4031;49.758;6.120;2022-09-09T05:13:04;6.67;;;1.80;;
7971;SDS011;4031;49.758;6.120;2022-09-09T05:15:31;4.23;;;1.90;;
7971;SDS011;4031;49.758;6.120;2022-09-09T05:18:00;4.17;;;1.30;;
7971;SDS011;4031;49.758;6.120;2022-09-09T05:20:27;7.03;;;1.83;;
7971;SDS011;4031;49.758;6.120;2022-09-09T05:22:53;2.17;;;1.40;;
7971;SDS011;4031;49.758;6.120;2022-09-09T05:25:21;3.90;;;2.07;;
7971;SDS011;4031;49.758;6.120;2022-09-09T05:27:47;2.83;;;1.90;;
7971;SDS011;4031;49.758;6.120;2022-09-09T05:30:14;3.60;;;2.30;;
7971;SDS011;4031;49.758;6.120;2022-09-09T05:32:40;4.10;;;2.57;;
7971;SDS011;4031;49.758;6.120;2022-09-09T05:35:06;5.77;;;1.97;;
7971;SDS011;4031;49.758;6.120;2022-09-09T05:37:32;7.03;;;2.37;;
7971;SDS011;4031;49.758;6.120;2022-09-09T05:39:58;3.70;;;1.80;;
7971;SDS011;4031;49.758;6.120;2022-09-09T05:42:24;4.73;;;1.63;;
7971;SDS011;4031;49.758;6.120;2022-09-09T05:44:49;3.60;;;1.93;;
7971;SDS011;4031;49.758;6.120;2022-09-09T05:47:16;5.97;;;1.80;;
7971;SDS011;4031;49.758;6.120;2022-09-09T05:49:42;4.23;;;1.90;;
7971;SDS011;4031;49.758;6.120;2022-09-09T05:52:08;8.13;;;2.00;;
7971;SDS011;4031;49.758;6.120;2022-09-09T05:54:34;4.43;;;1.83;;
7971;SDS011;4031;49.758;6.120;2022-09-09T05:57:01;2.83;;;1.47;;
7971;SDS011;4031;49.758;6.120;2022-09-09T05:59:28;5.60;;;1.87;;
7971;SDS011;4031;49.758;6.120;2022-09-09T06:01:53;5.60;;;2.03;;
7971;SDS011;4031;49.758;6.120;2022-09-09T06:04:19;3.20;;;1.50;;
7971;SDS011;4031;49.758;6.120;2022-09-09T06:06:49;7.93;;;1.50;;
7971;SDS011;4031;49.758;6.120;2022-09-09T06:09:15;4.97;;;2.07;;
7971;SDS011;4031;49.758;6.120;2022-09-09T06:11:42;7.50;;;1.73;;
7971;SDS011;4031;49.758;6.120;2022-09-09T06:14:08;3.80;;;1.20;;
7971;SDS011;4031;49.758;6.120;2022-09-09T06:16:34;9.40;;;1.50;;
7971;SDS011;4031;49.758;6.120;2022-09-09T06:19:02;6.27;;;1.90;;
7971;SDS011;4031;49.758;6.120;2022-09-09T06:21:35;6.47;;;1.73;;
7971;SDS011;4031;49.758;6.120;2022-09-09T06:24:02;5.90;;;1.90;;
7971;SDS011;4031;49.758;6.120;2022-09-09T06:26:29;7.03;;;1.50;;
7971;SDS011;4031;49.758;6.120;2022-09-09T06:28:57;3.73;;;1.87;;
7971;SDS011;4031;49.758;6.120;2022-09-09T06:31:25;2.87;;;1.17;;
7971;SDS011;4031;49.758;6.120;2022-09-09T06:33:55;8.03;;;1.53;;
7971;SDS011;4031;49.758;6.120;2022-09-09T06:36:23;4.33;;;1.50;;
7971;SDS011;4031;49.758;6.120;2022-09-09T06:38:51;3.00;;;1.67;;
7971;SDS011;4031;49.758;6.120;2022-09-09T06:41:17;1.10;;;1.00;;
7971;SDS011;4031;49.758;6.120;2022-09-09T06:43:45;9.20;;;1.97;;
7971;SDS011;4031;49.758;6.120;2022-09-09T06:46:12;7.20;;;1.47;;
7971;SDS011;4031;49.758;6.120;2022-09-09T06:48:47;3.10;;;1.40;;
7971;SDS011;4031;49.758;6.120;2022-09-09T06:51:18;5.40;;;1.50;;
7971;SDS011;4031;49.758;6.120;2022-09-09T06:53:52;5.80;;;1.67;;
7971;SDS011;4031;49.758;6.120;2022-09-09T06:58:58;5.87;;;1.10;;
7971;SDS011;4031;49.758;6.120;2022-09-09T07:01:31;6.00;;;1.30;;
7971;SDS011;4031;49.758;6.120;2022-09-09T07:03:59;2.30;;;1.47;;
7971;SDS011;4031;49.758;6.120;2022-09-09T07:06:28;4.13;;;1.40;;
7971;SDS011;4031;49.758;6.120;2022-09-09T07:08:56;4.30;;;1.60;;
7971;SDS011;4031;49.758;6.120;2022-09-09T07:11:26;5.13;;;1.40;;
7971;SDS011;4031;49.758;6.120;2022-09-09T07:13:56;5.03;;;1.50;;
7971;SDS011;4031;49.758;6.120;2022-09-09T07:16:24;2.80;;;1.77;;
7971;SDS011;4031;49.758;6.120;2022-09-09T07:18:51;3.43;;;1.10;;
7971;SDS011;4031;49.758;6.120;2022-09-09T07:21:17;5.47;;;1.60;;
7971;SDS011;4031;49.758;6.120;2022-09-09T07:23:44;5.77;;;1.90;;
7971;SDS011;4031;49.758;6.120;2022-09-09T07:26:11;4.73;;;1.80;;
7971;SDS011;4031;49.758;6.120;2022-09-09T07:28:40;5.60;;;1.60;;
7971;SDS011;4031;49.758;6.120;2022-09-09T07:31:08;9.80;;;1.43;;
7971;SDS011;4031;49.758;6.120;2022-09-09T07:33:41;6.80;;;1.70;;
7971;SDS011;4031;49.758;6.120;2022-09-09T07:36:10;6.80;;;1.30;;
7971;SDS011;4031;49.758;6.120;2022-09-09T07:38:47;10.10;;;1.57;;
7971;SDS011;4031;49.758;6.120;2022-09-09T07:43:57;7.70;;;1.50;;
7971;SDS011;4031;49.758;6.120;2022-09-09T07:46:24;2.90;;;1.20;;
7971;SDS011;4031;49.758;6.120;2022-09-09T07:48:54;3.63;;;1.40;;
7971;SDS011;4031;49.758;6.120;2022-09-09T07:51:25;4.87;;;1.40;;
7971;SDS011;4031;49.758;6.120;2022-09-09T07:53:58;3.73;;;1.27;;
7971;SDS011;4031;49.758;6.120;2022-09-09T07:56:28;4.00;;;1.47;;
7971;SDS011;4031;49.758;6.120;2022-09-09T07:58:56;6.97;;;1.43;;
7971;SDS011;4031;49.758;6.120;2022-09-09T08:01:25;4.60;;;1.40;;
7971;SDS011;4031;49.758;6.120;2022-09-09T08:04:07;2.77;;;1.17;;
7971;SDS011;4031;49.758;6.120;2022-09-09T08:06:40;3.93;;;1.33;;
7971;SDS011;4031;49.758;6.120;2022-09-09T08:09:11;6.67;;;1.63;;
7971;SDS011;4031;49.758;6.120;2022-09-09T08:11:38;5.47;;;1.60;;
7971;SDS011;4031;49.758;6.120;2022-09-09T08:14:05;5.93;;;1.47;;
7971;SDS011;4031;49.758;6.120;2022-09-09T08:16:36;2.80;;;1.40;;
7971;SDS011;4031;49.758;6.120;2022-09-09T08:19:08;3.83;;;0.90;;
7971;SDS011;4031;49.758;6.120;2022-09-09T08:21:35;5.10;;;1.97;;
7971;SDS011;4031;49.758;6.120;2022-09-09T08:24:04;7.10;;;1.60;;
7971;SDS011;4031;49.758;6.120;2022-09-09T08:26:34;3.90;;;1.20;;
7971;SDS011;4031;49.758;6.120;2022-09-09T08:29:21;6.77;;;1.97;;
7971;SDS011;4031;49.758;6.120;2022-09-09T08:31:48;3.27;;;1.63;;
7971;SDS011;4031;49.758;6.120;2022-09-09T08:34:17;6.67;;;1.80;;
7971;SDS011;4031;49.758;6.120;2022-09-09T08:36:45;3.33;;;1.10;;
7971;SDS011;4031;49.758;6.120;2022-09-09T08:39:14;2.13;;;1.20;;
7971;SDS011;4031;49.758;6.120;2022-09-09T08:50:41;3.00;;;1.00;;
7971;SDS011;4031;49.758;6.120;2022-09-09T08:55:51;3.40;;;1.30;;
7971;SDS011;4031;49.758;6.120;2022-09-09T08:58:23;3.50;;;1.27;;
7971;SDS011;4031;49.758;6.120;2022-09-09T09:03:48;6.47;;;1.83;;
7971;SDS011;4031;49.758;6.120;2022-09-09T09:09:02;5.93;;;1.20;;
7971;SDS011;4031;49.758;6.120;2022-09-09T09:11:57;3.33;;;1.23;;
7971;SDS011;4031;49.758;6.120;2022-09-09T09:14:26;2.33;;;1.03;;
7971;SDS011;4031;49.758;6.120;2022-09-09T09:19:42;5.70;;;1.97;;
7971;SDS011;4031;49.758;6.120;2022-09-09T09:27:58;7.63;;;1.40;;
7971;SDS011;4031;49.758;6.120;2022-09-09T09:30:39;7.53;;;1.77;;
7971;SDS011;4031;49.758;6.120;2022-09-09T09:36:06;3.07;;;1.20;;
7971;SDS011;4031;49.758;6.120;2022-09-09T09:38:34;8.43;;;1.13;;
7971;SDS011;4031;49.758;6.120;2022-09-09T09:41:02;3.00;;;1.30;;
7971;SDS011;4031;49.758;6.120;2022-09-09T09:43:32;1.60;;;1.20;;
7971;SDS011;4031;49.758;6.120;2022-09-09T09:46:00;4.67;;;1.30;;
7971;SDS011;4031;49.758;6.120;2022-09-09T09:48:29;2.60;;;1.13;;
7971;SDS011;4031;49.758;6.120;2022-09-09T09:50:59;3.17;;;1.30;;
7971;SDS011;4031;49.758;6.120;2022-09-09T09:53:38;2.17;;;0.80;;
7971;SDS011;4031;49.758;6.120;2022-09-09T09:56:08;3.00;;;0.80;;
7971;SDS011;4031;49.758;6.120;2022-09-09T10:01:18;2.00;;;0.90;;
7971;SDS011;4031;49.758;6.120;2022-09-09T10:03:59;2.60;;;1.03;;
7971;SDS011;4031;49.758;6.120;2022-09-09T10:06:41;3.30;;;1.13;;
7971;SDS011;4031;49.758;6.120;2022-09-09T10:09:26;3.40;;;1.10;;
7971;SDS011;4031;49.758;6.120;2022-09-09T10:17:13;1.60;;;0.70;;
7971;SDS011;4031;49.758;6.120;2022-09-09T10:22:34;3.57;;;1.17;;
7971;SDS011;4031;49.758;6.120;2022-09-09T10:27:57;5.07;;;1.30;;
7971;SDS011;4031;49.758;6.120;2022-09-09T10:38:41;2.17;;;0.77;;
7971;SDS011;4031;49.758;6.120;2022-09-09T10:44:33;3.80;;;1.40;;
7971;SDS011;4031;49.758;6.120;2022-09-09T10:56:28;1.53;;;0.90;;
7971;SDS011;4031;49.758;6.120;2022-09-09T10:59:08;2.40;;;0.90;;
7971;SDS011;4031;49.758;6.120;2022-09-09T11:04:29;4.63;;;0.90;;
7971;SDS011;4031;49.758;6.120;2022-09-09T11:07:06;3.23;;;0.90;;
7971;SDS011;4031;49.758;6.120;2022-09-09T11:09:46;2.50;;;1.00;;
7971;SDS011;4031;49.758;6.120;2022-09-09T11:12:20;1.80;;;0.83;;
7971;SDS011;4031;49.758;6.120;2022-09-09T11:15:23;3.60;;;0.67;;
7971;SDS011;4031;49.758;6.120;2022-09-09T11:18:04;3.07;;;0.93;;
7971;SDS011;4031;49.758;6.120;2022-09-09T11:20:31;5.00;;;1.10;;
7971;SDS011;4031;49.758;6.120;2022-09-09T11:23:02;2.23;;;0.97;;
7971;SDS011;4031;49.758;6.120;2022-09-09T11:25:48;2.67;;;0.80;;
7971;SDS011;4031;49.758;6.120;2022-09-09T11:28:39;1.93;;;0.73;;
7971;SDS011;4031;49.758;6.120;2022-09-09T11:34:08;5.37;;;0.90;;
7971;SDS011;4031;49.758;6.120;2022-09-09T11:42:32;1.87;;;0.73;;
7971;SDS011;4031;49.758;6.120;2022-09-09T11:44:58;1.33;;;0.60;;
7971;SDS011;4031;49.758;6.120;2022-09-09T11:47:59;3.37;;;0.70;;
7971;SDS011;4031;49.758;6.120;2022-09-09T11:50:28;1.50;;;0.70;;
7971;SDS011;4031;49.758;6.120;2022-09-09T11:53:29;2.90;;;0.60;;
7971;SDS011;4031;49.758;6.120;2022-09-09T11:55:48;4.50;;;1.07;;
7971;SDS011;4031;49.758;6.120;2022-09-09T11:58:26;1.30;;;0.87;;
7971;SDS011;4031;49.758;6.120;2022-09-09T12:00:57;4.90;;;0.80;;
7971;SDS011;4031;49.758;6.120;2022-09-09T12:03:45;3.43;;;1.00;;
7971;SDS011;4031;49.758;6.120;2022-09-09T12:09:29;4.57;;;0.90;;
7971;SDS011;4031;49.758;6.120;2022-09-09T12:19:47;4.03;;;1.17;;
7971;SDS011;4031;49.758;6.120;2022-09-09T12:34:19;3.33;;;0.83;;
7971;SDS011;4031;49.758;6.120;2022-09-09T12:37:10;3.17;;;0.80;;
7971;SDS011;4031;49.758;6.120;2022-09-09T12:39:45;1.93;;;0.70;;
7971;SDS011;4031;49.758;6.120;2022-09-09T12:42:22;2.57;;;1.03;;
7971;SDS011;4031;49.758;6.120;2022-09-09T12:50:26;1.53;;;0.90;;
7971;SDS011;4031;49.758;6.120;2022-09-09T12:52:57;2.00;;;1.10;;
7971;SDS011;4031;49.758;6.120;2022-09-09T12:55:28;4.00;;;1.20;;
7971;SDS011;4031;49.758;6.120;2022-09-09T12:57:58;2.40;;;0.90;;
7971;SDS011;4031;49.758;6.120;2022-09-09T13:00:25;8.83;;;1.20;;
7971;SDS011;4031;49.758;6.120;2022-09-09T13:02:52;2.03;;;0.70;;
7971;SDS011;4031;49.758;6.120;2022-09-09T13:05:22;4.13;;;1.00;;
7971;SDS011;4031;49.758;6.120;2022-09-09T13:07:51;5.43;;;1.20;;
7971;SDS011;4031;49.758;6.120;2022-09-09T13:10:27;2.27;;;1.10;;
7971;SDS011;4031;49.758;6.120;2022-09-09T13:12:57;1.27;;;1.00;;
7971;SDS011;4031;49.758;6.120;2022-09-09T13:15:23;1.17;;;0.80;;
7971;SDS011;4031;49.758;6.120;2022-09-09T13:17:56;5.10;;;1.43;;
7971;SDS011;4031;49.758;6.120;2022-09-09T13:20:25;5.90;;;1.60;;
7971;SDS011;4031;49.758;6.120;2022-09-09T13:22:52;2.60;;;1.23;;
7971;SDS011;4031;49.758;6.120;2022-09-09T13:25:21;2.73;;;1.10;;
7971;SDS011;4031;49.758;6.120;2022-09-09T13:27:59;3.93;;;1.40;;
7971;SDS011;4031;49.758;6.120;2022-09-09T13:30:33;4.13;;;0.90;;
7971;SDS011;4031;49.758;6.120;2022-09-09T13:35:34;3.17;;;1.23;;
7971;SDS011;4031;49.758;6.120;2022-09-09T13:38:20;2.13;;;0.90;;
7971;SDS011;4031;49.758;6.120;2022-09-09T13:43:46;2.47;;;1.23;;
7971;SDS011;4031;49.758;6.120;2022-09-09T13:49:16;1.93;;;1.20;;
7971;SDS011;4031;49.758;6.120;2022-09-09T13:51:48;2.80;;;1.20;;
7971;SDS011;4031;49.758;6.120;2022-09-09T13:54:18;2.00;;;1.07;;
7971;SDS011;4031;49.758;6.120;2022-09-09T13:56:45;4.40;;;0.90;;
7971;SDS011;4031;49.758;6.120;2022-09-09T13:59:18;1.03;;;0.70;;
7971;SDS011;4031;49.758;6.120;2022-09-09T14:01:44;3.90;;;1.17;;
7971;SDS011;4031;49.758;6.120;2022-09-09T14:04:11;2.57;;;1.00;;
7971;SDS011;4031;49.758;6.120;2022-09-09T14:06:38;2.03;;;1.00;;
7971;SDS011;4031;49.758;6.120;2022-09-09T14:09:05;1.50;;;1.07;;
7971;SDS011;4031;49.758;6.120;2022-09-09T14:11:42;2.00;;;1.50;;
7971;SDS011;4031;49.758;6.120;2022-09-09T14:14:10;1.87;;;1.20;;
7971;SDS011;4031;49.758;6.120;2022-09-09T14:16:35;1.13;;;0.80;;
7971;SDS011;4031;49.758;6.120;2022-09-09T14:19:02;4.30;;;1.27;;
7971;SDS011;4031;49.758;6.120;2022-09-09T14:21:28;2.70;;;0.93;;
7971;SDS011;4031;49.758;6.120;2022-09-09T14:23:54;1.20;;;0.90;;
7971;SDS011;4031;49.758;6.120;2022-09-09T14:26:23;2.70;;;1.43;;
7971;SDS011;4031;49.758;6.120;2022-09-09T14:28:49;3.53;;;1.23;;
7971;SDS011;4031;49.758;6.120;2022-09-09T14:31:15;1.83;;;0.90;;
7971;SDS011;4031;49.758;6.120;2022-09-09T14:33:44;2.20;;;1.00;;
7971;SDS011;4031;49.758;6.120;2022-09-09T14:36:10;2.10;;;1.00;;
7971;SDS011;4031;49.758;6.120;2022-09-09T14:38:37;2.00;;;0.80;;
7971;SDS011;4031;49.758;6.120;2022-09-09T14:41:07;3.40;;;1.53;;
7971;SDS011;4031;49.758;6.120;2022-09-09T14:43:39;3.63;;;0.90;;
7971;SDS011;4031;49.758;6.120;2022-09-09T14:46:08;2.73;;;1.20;;
7971;SDS011;4031;49.758;6.120;2022-09-09T14:48:36;1.73;;;1.00;;
7971;SDS011;4031;49.758;6.120;2022-09-09T14:51:08;4.40;;;1.43;;
7971;SDS011;4031;49.758;6.120;2022-09-09T14:53:41;3.37;;;0.80;;
7971;SDS011;4031;49.758;6.120;2022-09-09T14:56:16;2.47;;;1.10;;
7971;SDS011;4031;49.758;6.120;2022-09-09T14:58:45;3.37;;;1.20;;
7971;SDS011;4031;49.758;6.120;2022-09-09T15:01:12;2.20;;;1.13;;
7971;SDS011;4031;49.758;6.120;2022-09-09T15:03:41;3.30;;;1.20;;
7971;SDS011;4031;49.758;6.120;2022-09-09T15:06:13;3.73;;;0.80;;
7971;SDS011;4031;49.758;6.120;2022-09-09T15:08:40;1.73;;;1.10;;
7971;SDS011;4031;49.758;6.120;2022-09-09T15:11:09;4.23;;;1.40;;
7971;SDS011;4031;49.758;6.120;2022-09-09T15:13:36;2.03;;;0.87;;
7971;SDS011;4031;49.758;6.120;2022-09-09T15:16:14;4.63;;;1.03;;
7971;SDS011;4031;49.758;6.120;2022-09-09T15:18:43;1.53;;;0.80;;
7971;SDS011;4031;49.758;6.120;2022-09-09T15:21:15;2.97;;;0.97;;
7971;SDS011;4031;49.758;6.120;2022-09-09T15:23:46;0.90;;;0.60;;
7971;SDS011;4031;49.758;6.120;2022-09-09T15:26:13;1.10;;;1.00;;
7971;SDS011;4031;49.758;6.120;2022-09-09T15:28:40;3.63;;;0.70;;
7971;SDS011;4031;49.758;6.120;2022-09-09T15:31:12;1.67;;;0.87;;
7971;SDS011;4031;49.758;6.120;2022-09-09T15:33:52;2.27;;;0.70;;
7971;SDS011;4031;49.758;6.120;2022-09-09T15:39:02;3.60;;;0.90;;
7971;SDS011;4031;49.758;6.120;2022-09-09T15:41:30;1.43;;;0.77;;
7971;SDS011;4031;49.758;6.120;2022-09-09T15:43:56;3.33;;;0.80;;
7971;SDS011;4031;49.758;6.120;2022-09-09T15:51:36;3.67;;;1.10;;
7971;SDS011;4031;49.758;6.120;2022-09-09T15:54:04;2.93;;;0.93;;
7971;SDS011;4031;49.758;6.120;2022-09-09T15:56:30;4.33;;;1.20;;
7971;SDS011;4031;49.758;6.120;2022-09-09T15:58:57;1.80;;;0.80;;
7971;SDS011;4031;49.758;6.120;2022-09-09T16:01:25;2.47;;;0.90;;
7971;SDS011;4031;49.758;6.120;2022-09-09T16:03:52;1.27;;;0.97;;
7971;SDS011;4031;49.758;6.120;2022-09-09T16:06:19;3.00;;;0.97;;
7971;SDS011;4031;49.758;6.120;2022-09-09T16:08:48;2.20;;;0.90;;
7971;SDS011;4031;49.758;6.120;2022-09-09T16:11:21;2.60;;;1.10;;
7971;SDS011;4031;49.758;6.120;2022-09-09T16:13:49;3.40;;;1.30;;
7971;SDS011;4031;49.758;6.120;2022-09-09T16:16:17;2.60;;;0.80;;
7971;SDS011;4031;49.758;6.120;2022-09-09T16:18:47;1.90;;;0.93;;
7971;SDS011;4031;49.758;6.120;2022-09-09T16:21:26;1.90;;;0.77;;
7971;SDS011;4031;49.758;6.120;2022-09-09T16:23:55;4.70;;;1.50;;
7971;SDS011;4031;49.758;6.120;2022-09-09T16:26:24;1.60;;;0.90;;
7971;SDS011;4031;49.758;6.120;2022-09-09T16:28:53;2.33;;;1.00;;
7971;SDS011;4031;49.758;6.120;2022-09-09T16:31:20;2.10;;;1.50;;
7971;SDS011;4031;49.758;6.120;2022-09-09T16:33:48;2.37;;;1.30;;
7971;SDS011;4031;49.758;6.120;2022-09-09T16:36:16;2.23;;;1.07;;
7971;SDS011;4031;49.758;6.120;2022-09-09T16:38:47;2.33;;;1.00;;
7971;SDS011;4031;49.758;6.120;2022-09-09T16:41:17;2.57;;;1.10;;
7971;SDS011;4031;49.758;6.120;2022-09-09T16:43:45;1.00;;;0.83;;
7971;SDS011;4031;49.758;6.120;2022-09-09T16:46:14;2.80;;;0.90;;
7971;SDS011;4031;49.758;6.120;2022-09-09T16:48:43;2.07;;;0.90;;
7971;SDS011;4031;49.758;6.120;2022-09-09T16:51:20;3.03;;;0.97;;
7971;SDS011;4031;49.758;6.120;2022-09-09T16:53:49;1.73;;;1.17;;
7971;SDS011;4031;49.758;6.120;2022-09-09T16:56:17;2.87;;;1.00;;
7971;SDS011;4031;49.758;6.120;2022-09-09T16:59:01;3.77;;;0.90;;
7971;SDS011;4031;49.758;6.120;2022-09-09T17:01:34;2.07;;;1.03;;
7971;SDS011;4031;49.758;6.120;2022-09-09T17:04:04;1.10;;;0.80;;
7971;SDS011;4031;49.758;6.120;2022-09-09T17:06:33;1.80;;;1.00;;
7971;SDS011;4031;49.758;6.120;2022-09-09T17:09:01;1.37;;;0.90;;
7971;SDS011;4031;49.758;6.120;2022-09-09T17:11:29;1.93;;;0.83;;
7971;SDS011;4031;49.758;6.120;2022-09-09T17:13:56;2.07;;;0.80;;
7971;SDS011;4031;49.758;6.120;2022-09-09T17:16:23;3.43;;;1.10;;
7971;SDS011;4031;49.758;6.120;2022-09-09T17:18:52;1.73;;;1.07;;
7971;SDS011;4031;49.758;6.120;2022-09-09T17:21:23;3.30;;;0.70;;
7971;SDS011;4031;49.758;6.120;2022-09-09T17:23:53;6.13;;;1.03;;
7971;SDS011;4031;49.758;6.120;2022-09-09T17:26:21;3.03;;;1.10;;
7971;SDS011;4031;49.758;6.120;2022-09-09T17:28:51;2.30;;;0.97;;
7971;SDS011;4031;49.758;6.120;2022-09-09T17:31:17;5.57;;;1.40;;
7971;SDS011;4031;49.758;6.120;2022-09-09T17:33:45;2.10;;;0.97;;
7971;SDS011;4031;49.758;6.120;2022-09-09T17:36:14;4.50;;;1.47;;
7971;SDS011;4031;49.758;6.120;2022-09-09T17:38:41;3.20;;;1.00;;
7971;SDS011;4031;49.758;6.120;2022-09-09T17:41:12;5.57;;;1.00;;
7971;SDS011;4031;49.758;6.120;2022-09-09T17:43:40;2.97;;;1.13;;
7971;SDS011;4031;49.758;6.120;2022-09-09T17:46:08;1.33;;;0.87;;
7971;SDS011;4031;49.758;6.120;2022-09-09T17:48:49;2.33;;;1.30;;
7971;SDS011;4031;49.758;6.120;2022-09-09T17:51:18;3.10;;;1.10;;
7971;SDS011;4031;49.758;6.120;2022-09-09T17:53:50;2.73;;;1.20;;
7971;SDS011;4031;49.758;6.120;2022-09-09T17:56:18;6.43;;;1.23;;
7971;SDS011;4031;49.758;6.120;2022-09-09T17:58:49;4.50;;;1.47;;
7971;SDS011;4031;49.758;6.120;2022-09-09T18:01:17;3.60;;;1.50;;
7971;SDS011;4031;49.758;6.120;2022-09-09T18:03:48;1.23;;;1.00;;
7971;SDS011;4031;49.758;6.120;2022-09-09T18:06:16;2.30;;;1.30;;
7971;SDS011;4031;49.758;6.120;2022-09-09T18:08:52;3.10;;;1.40;;
7971;SDS011;4031;49.758;6.120;2022-09-09T18:11:22;6.07;;;1.30;;
7971;SDS011;4031;49.758;6.120;2022-09-09T18:13:52;3.10;;;1.40;;
7971;SDS011;4031;49.758;6.120;2022-09-09T18:16:21;3.07;;;1.60;;
7971;SDS011;4031;49.758;6.120;2022-09-09T18:18:49;2.77;;;1.57;;
7971;SDS011;4031;49.758;6.120;2022-09-09T18:21:16;7.83;;;1.73;;
7971;SDS011;4031;49.758;6.120;2022-09-09T18:23:43;4.50;;;1.70;;